الصفحة الرئيسية
METAR-TAF:

METAR-TAF

مطار :

Bocas Town, بنما

دائرة عرض: 09-21N, خط طول: 082-15W, ارتفاع: 3 متر

مراقبة الطقس الحالي

تاريخ ووقت الإصدار 1ساعة و 15 دقيقة قبل الساعة 18:00UTC
ريح 12 عقدة من الغرب
درجة الحرارة 24°درجة مئوية
الرطوبة 100%
ضغط 1016 hPa
الرؤية: 9000 متر
غيوم متفرقة على ارتفاع 1500 قدم
ملبد بالغيوم على ارتفاع 8000 قدم
زخات في الجوار,

METAR: MPBO 211800Z 26012KT 9000 VCSH SCT015 OVC080 24/24 Q1016 RERA

زمن: 14:15 (19:15 UTC)


TAF: مفقودة

أرصاد الطقس والتوقعات من أكثر من 4000 مطار (تقارير الطقس للمطار METAR والتنبؤ بالطقس بالمطارTAF).

المحطات المتاحة هي النقط الصفراء والحمراء على الخريطة.

حرك المؤشر فوق النقطة لمعرفة اسم المحطة.

ثم انقر لمعرفة أرصاد وتوقعات الطقس.

لتغيير الخارطة: اضغط على الأزرار الخضراء مع رمز الصليب الأسود للتكبير. على الزر الأخضر مع شرطة للتصغير، أو على الأسهم الخضراء للخرائط المجاورة.


METAR-TAF: